Hlavní strana
METAR-TAF:

METAR-TAF

Letiště :

Letiště Hévíz

Hévíz, Maďarsko

zeměpisná šířka: 46-41-11N, zeměpisná délka: 017-09-33E, výška: 124 m

Aktuální stav počasí

Zpráva byla vytvořena před 41 minutami, v 15:15 UTC
Severní vítr 5 kt
Teplota 8°C
Vlhkost vzduchu 71%
Tlak 1031 hPa
Viditelnost 10 km a více
Skoro jasno ve výšce 2000 ft

METAR: LHSM 161515Z 36005KT 9999 FEW020 08/03 Q1031 NOSIG

Čas: 16:56 (15:56 UTC)

Předpověď počasí

Zpráva byla vytvořena před 4 hodinami a 41 minutami, v 11:15 UTC
Předpověď platná od 16 v 12 UTC do 16 v 21 UTC
Severovýchodní vítr 10 kt
Viditelnost 10 km a více
Žádná oblačnost pod 1500 m, nevyskytují se cumulonimby.

TAF: LHSM 161115Z 1612/1621 05010KT CAVOK

Stav a předpovědi počasí z více než 4 000 letišť (zprávy METAR a TAF).

Červené a žluté tečky na mapě představují dostupné meteorologické stanice.

Když kurzor umístíte na tečku, zobrazí se název stanice.

Pak kliknutím zobrazíte stav a předpověď počasí.

Chcete-li změnit mapu, kliknutím na zelené tlačítko se znaménkem +mapu přiblížíte, kliknutím na zelené tlačítko se znaménkem – mapu oddálíte a kliknutím na zelené šipky přejdete na sousední mapy.


METAR-TAF: